sensor_id;sensor_type;location;lat;lon;timestamp;pressure;altitude;pressure_sealevel;temperature;humidity
23016;BME280;11674;52.428;13.584;2023-03-13T00:03:22;100383.69;;;8.27;84.87
23016;BME280;11674;52.428;13.584;2023-03-13T00:08:29;100379.53;;;8.30;84.85
23016;BME280;11674;52.428;13.584;2023-03-13T00:13:36;100388.06;;;8.33;85.15
23016;BME280;11674;52.428;13.584;2023-03-13T00:18:44;100391.94;;;8.37;84.97
23016;BME280;11674;52.428;13.584;2023-03-13T00:23:52;100378.09;;;8.42;84.98
23016;BME280;11674;52.428;13.584;2023-03-13T00:28:59;100367.28;;;8.46;85.03
23016;BME280;11674;52.428;13.584;2023-03-13T00:34:06;100357.59;;;8.48;84.84
23016;BME280;11674;52.428;13.584;2023-03-13T00:39:13;100363.63;;;8.50;85.02
23016;BME280;11674;52.428;13.584;2023-03-13T00:44:20;100357.03;;;8.51;85.07
23016;BME280;11674;52.428;13.584;2023-03-13T00:49:27;100347.63;;;8.52;85.01
23016;BME280;11674;52.428;13.584;2023-03-13T00:54:34;100342.34;;;8.56;84.93
23016;BME280;11674;52.428;13.584;2023-03-13T00:59:41;100331.81;;;8.58;85.19
23016;BME280;11674;52.428;13.584;2023-03-13T01:04:48;100331.53;;;8.59;84.92
23016;BME280;11674;52.428;13.584;2023-03-13T01:09:56;100332.38;;;8.60;84.92
23016;BME280;11674;52.428;13.584;2023-03-13T01:15:03;100327.94;;;8.59;85.05
23016;BME280;11674;52.428;13.584;2023-03-13T01:20:10;100324.63;;;8.57;84.90
23016;BME280;11674;52.428;13.584;2023-03-13T01:25:17;100327.13;;;8.58;84.90
23016;BME280;11674;52.428;13.584;2023-03-13T01:30:24;100318.81;;;8.58;84.83
23016;BME280;11674;52.428;13.584;2023-03-13T01:35:31;100325.19;;;8.59;84.80
23016;BME280;11674;52.428;13.584;2023-03-13T01:40:44;100325.19;;;8.59;84.94
23016;BME280;11674;52.428;13.584;2023-03-13T01:51:43;100302.22;;;8.58;84.98
23016;BME280;11674;52.428;13.584;2023-03-13T01:56:53;100301.41;;;8.58;84.95
23016;BME280;11674;52.428;13.584;2023-03-13T02:02:04;100290.34;;;8.58;84.93
23016;BME280;11674;52.428;13.584;2023-03-13T02:07:15;100289.78;;;8.61;84.91
23016;BME280;11674;52.428;13.584;2023-03-13T02:12:30;100276.78;;;8.61;84.80
23016;BME280;11674;52.428;13.584;2023-03-13T02:17:37;100278.44;;;8.62;84.90
23016;BME280;11674;52.428;13.584;2023-03-13T02:23:02;100264.56;;;8.67;84.82
23016;BME280;11674;52.428;13.584;2023-03-13T02:28:16;100259.84;;;8.68;84.98
23016;BME280;11674;52.428;13.584;2023-03-13T02:33:27;100257.31;;;8.71;84.87
23016;BME280;11674;52.428;13.584;2023-03-13T02:38:39;100252.06;;;8.75;85.09
23016;BME280;11674;52.428;13.584;2023-03-13T02:43:47;100249.81;;;8.77;84.90
23016;BME280;11674;52.428;13.584;2023-03-13T02:48:55;100245.66;;;8.79;85.04
23016;BME280;11674;52.428;13.584;2023-03-13T02:54:06;100236.47;;;8.84;85.15
23016;BME280;11674;52.428;13.584;2023-03-13T02:59:15;100225.34;;;8.89;85.11
23016;BME280;11674;52.428;13.584;2023-03-13T03:04:25;100214.25;;;8.94;85.15
23016;BME280;11674;52.428;13.584;2023-03-13T03:09:32;100206.41;;;9.01;85.30
23016;BME280;11674;52.428;13.584;2023-03-13T03:14:44;100203.59;;;9.06;85.35
23016;BME280;11674;52.428;13.584;2023-03-13T03:19:58;100196.91;;;9.12;85.36
23016;BME280;11674;52.428;13.584;2023-03-13T03:25:06;100184.72;;;9.13;85.28
23016;BME280;11674;52.428;13.584;2023-03-13T03:30:13;100182.97;;;9.17;85.33
23016;BME280;11674;52.428;13.584;2023-03-13T03:35:20;100170.50;;;9.19;85.31
23016;BME280;11674;52.428;13.584;2023-03-13T03:40:27;100173.19;;;9.24;85.41
23016;BME280;11674;52.428;13.584;2023-03-13T03:45:34;100169.84;;;9.27;85.36
23016;BME280;11674;52.428;13.584;2023-03-13T03:50:41;100160.19;;;9.25;85.22
23016;BME280;11674;52.428;13.584;2023-03-13T03:55:49;100155.19;;;9.27;85.35
23016;BME280;11674;52.428;13.584;2023-03-13T04:00:57;100148.22;;;9.29;85.24
23016;BME280;11674;52.428;13.584;2023-03-13T04:06:05;100129.06;;;9.33;85.49
23016;BME280;11674;52.428;13.584;2023-03-13T04:11:28;100128.50;;;9.36;85.51
23016;BME280;11674;52.428;13.584;2023-03-13T04:16:35;100123.47;;;9.38;85.34
23016;BME280;11674;52.428;13.584;2023-03-13T04:21:42;100116.22;;;9.42;85.53
23016;BME280;11674;52.428;13.584;2023-03-13T04:26:51;100110.63;;;9.47;85.31
23016;BME280;11674;52.428;13.584;2023-03-13T04:31:59;100094.22;;;9.50;85.41
23016;BME280;11674;52.428;13.584;2023-03-13T04:37:25;100090.59;;;9.55;85.47
23016;BME280;11674;52.428;13.584;2023-03-13T04:42:55;100086.06;;;9.59;85.17
23016;BME280;11674;52.428;13.584;2023-03-13T04:48:11;100076.03;;;9.63;85.23
23016;BME280;11674;52.428;13.584;2023-03-13T04:53:31;100071.63;;;9.62;85.13
23016;BME280;11674;52.428;13.584;2023-03-13T04:58:47;100059.22;;;9.59;85.12
23016;BME280;11674;52.428;13.584;2023-03-13T05:04:13;100054.50;;;9.60;85.11
23016;BME280;11674;52.428;13.584;2023-03-13T05:09:50;100044.84;;;9.57;85.25
23016;BME280;11674;52.428;13.584;2023-03-13T05:15:22;100027.72;;;9.55;85.24
23016;BME280;11674;52.428;13.584;2023-03-13T05:20:47;100004.22;;;9.53;85.21
23016;BME280;11674;52.428;13.584;2023-03-13T05:26:28;100001.75;;;9.51;85.27
23016;BME280;11674;52.428;13.584;2023-03-13T05:32:11;99991.81;;;9.50;85.27
23016;BME280;11674;52.428;13.584;2023-03-13T05:37:17;99985.13;;;9.51;85.22
23016;BME280;11674;52.428;13.584;2023-03-13T05:42:46;99976.03;;;9.51;85.34
23016;BME280;11674;52.428;13.584;2023-03-13T05:48:16;99955.22;;;9.53;85.61
23016;BME280;11674;52.428;13.584;2023-03-13T05:53:36;99953.25;;;9.54;85.61
23016;BME280;11674;52.428;13.584;2023-03-13T05:59:09;99935.56;;;9.55;85.49
23016;BME280;11674;52.428;13.584;2023-03-13T06:04:22;99921.72;;;9.55;85.44
23016;BME280;11674;52.428;13.584;2023-03-13T06:09:30;99920.56;;;9.56;85.31
23016;BME280;11674;52.428;13.584;2023-03-13T06:14:37;99919.75;;;9.55;85.63
23016;BME280;11674;52.428;13.584;2023-03-13T06:19:57;99900.91;;;9.57;85.53
23016;BME280;11674;52.428;13.584;2023-03-13T06:25:04;99899.13;;;9.61;85.69
23016;BME280;11674;52.428;13.584;2023-03-13T06:30:11;99880.50;;;9.67;85.75
23016;BME280;11674;52.428;13.584;2023-03-13T06:35:18;99874.88;;;9.72;85.66
23016;BME280;11674;52.428;13.584;2023-03-13T06:40:25;99860.91;;;9.77;85.96
23016;BME280;11674;52.428;13.584;2023-03-13T06:45:34;99850.03;;;9.80;85.78
23016;BME280;11674;52.428;13.584;2023-03-13T06:50:41;99834.66;;;9.88;85.76
23016;BME280;11674;52.428;13.584;2023-03-13T06:55:48;99826.75;;;9.95;85.70
23016;BME280;11674;52.428;13.584;2023-03-13T07:00:55;99817.81;;;9.98;85.83
23016;BME280;11674;52.428;13.584;2023-03-13T07:06:03;99795.84;;;10.01;85.62
23016;BME280;11674;52.428;13.584;2023-03-13T07:11:14;99806.34;;;10.04;85.43
23016;BME280;11674;52.428;13.584;2023-03-13T07:16:21;99794.44;;;10.04;85.47
23016;BME280;11674;52.428;13.584;2023-03-13T07:21:28;99788.28;;;10.07;85.36
23016;BME280;11674;52.428;13.584;2023-03-13T07:26:35;99791.22;;;10.10;85.46
23016;BME280;11674;52.428;13.584;2023-03-13T07:31:43;99779.03;;;10.11;85.36
23016;BME280;11674;52.428;13.584;2023-03-13T07:36:50;99772.56;;;10.16;85.33
23016;BME280;11674;52.428;13.584;2023-03-13T07:41:57;99773.06;;;10.18;85.53
23016;BME280;11674;52.428;13.584;2023-03-13T07:47:04;99772.56;;;10.16;85.79
23016;BME280;11674;52.428;13.584;2023-03-13T07:52:11;99758.69;;;10.16;85.82
23016;BME280;11674;52.428;13.584;2023-03-13T07:57:19;99754.19;;;10.20;85.74
23016;BME280;11674;52.428;13.584;2023-03-13T08:02:26;99740.81;;;10.22;85.92
23016;BME280;11674;52.428;13.584;2023-03-13T08:07:33;99740.09;;;10.30;85.90
23016;BME280;11674;52.428;13.584;2023-03-13T08:12:40;99721.19;;;10.32;85.93
23016;BME280;11674;52.428;13.584;2023-03-13T08:17:47;99708.03;;;10.37;86.16
23016;BME280;11674;52.428;13.584;2023-03-13T08:22:55;99705.44;;;10.41;85.91
23016;BME280;11674;52.428;13.584;2023-03-13T08:28:02;99688.16;;;10.44;85.63
23016;BME280;11674;52.428;13.584;2023-03-13T08:33:09;99690.31;;;10.47;85.79
23016;BME280;11674;52.428;13.584;2023-03-13T08:38:16;99683.97;;;10.55;86.03
23016;BME280;11674;52.428;13.584;2023-03-13T08:43:23;99694.31;;;10.63;86.23
23016;BME280;11674;52.428;13.584;2023-03-13T08:48:30;99681.47;;;10.67;86.00
23016;BME280;11674;52.428;13.584;2023-03-13T08:53:39;99678.03;;;10.70;86.04
23016;BME280;11674;52.428;13.584;2023-03-13T08:58:51;99661.13;;;10.80;86.41
23016;BME280;11674;52.428;13.584;2023-03-13T09:03:58;99666.88;;;10.92;86.06
23016;BME280;11674;52.428;13.584;2023-03-13T09:09:06;99650.78;;;11.02;86.35
23016;BME280;11674;52.428;13.584;2023-03-13T09:14:13;99642.50;;;11.11;86.24
23016;BME280;11674;52.428;13.584;2023-03-13T09:19:20;99638.91;;;11.19;86.12
23016;BME280;11674;52.428;13.584;2023-03-13T09:24:27;99639.28;;;11.26;86.17
23016;BME280;11674;52.428;13.584;2023-03-13T09:29:34;99638.97;;;11.36;86.11
23016;BME280;11674;52.428;13.584;2023-03-13T09:34:41;99638.81;;;11.41;85.91
23016;BME280;11674;52.428;13.584;2023-03-13T09:39:48;99643.03;;;11.38;85.82
23016;BME280;11674;52.428;13.584;2023-03-13T09:45:00;99641.06;;;11.30;85.29
23016;BME280;11674;52.428;13.584;2023-03-13T09:50:11;99645.63;;;11.26;85.50
23016;BME280;11674;52.428;13.584;2023-03-13T09:55:22;99632.59;;;11.27;85.95
23016;BME280;11674;52.428;13.584;2023-03-13T10:00:39;99622.63;;;11.34;86.17
23016;BME280;11674;52.428;13.584;2023-03-13T10:05:52;99614.50;;;11.46;86.08
23016;BME280;11674;52.428;13.584;2023-03-13T10:11:06;99617.75;;;11.57;85.72
23016;BME280;11674;52.428;13.584;2023-03-13T10:21:25;99616.00;;;11.61;85.53
23016;BME280;11674;52.428;13.584;2023-03-13T10:26:37;99607.47;;;11.57;85.90
23016;BME280;11674;52.428;13.584;2023-03-13T10:37:00;99588.72;;;11.80;86.44
23016;BME280;11674;52.428;13.584;2023-03-13T10:47:24;99572.66;;;12.19;86.75
23016;BME280;11674;52.428;13.584;2023-03-13T10:52:50;99558.19;;;12.34;86.51
23016;BME280;11674;52.428;13.584;2023-03-13T10:58:02;99558.97;;;12.52;86.35
23016;BME280;11674;52.428;13.584;2023-03-13T11:03:18;99556.63;;;12.71;86.66
23016;BME280;11674;52.428;13.584;2023-03-13T11:08:27;99547.97;;;12.93;86.63
23016;BME280;11674;52.428;13.584;2023-03-13T11:13:38;99534.00;;;13.10;86.40
23016;BME280;11674;52.428;13.584;2023-03-13T11:19:07;99521.09;;;13.26;86.30
23016;BME280;11674;52.428;13.584;2023-03-13T11:46:14;99504.38;;;14.20;86.16
23016;BME280;11674;52.428;13.584;2023-03-13T11:56:42;99489.53;;;14.52;86.04
23016;BME280;11674;52.428;13.584;2023-03-13T12:07:48;99486.63;;;14.72;86.16
23016;BME280;11674;52.428;13.584;2023-03-13T12:18:24;99473.44;;;14.97;86.95
23016;BME280;11674;52.428;13.584;2023-03-13T12:29:10;99467.88;;;15.48;86.98
23016;BME280;11674;52.428;13.584;2023-03-13T12:34:38;99454.63;;;15.73;86.62
23016;BME280;11674;52.428;13.584;2023-03-13T12:40:05;99467.22;;;15.94;87.36
23016;BME280;11674;52.428;13.584;2023-03-13T12:45:19;99451.34;;;16.41;87.36
23016;BME280;11674;52.428;13.584;2023-03-13T13:01:05;99420.38;;;17.19;88.90
23016;BME280;11674;52.428;13.584;2023-03-13T13:06:14;99414.91;;;17.26;87.84
23016;BME280;11674;52.428;13.584;2023-03-13T13:16:42;99409.13;;;17.95;89.15
23016;BME280;11674;52.428;13.584;2023-03-13T13:32:54;99398.19;;;18.09;85.94
23016;BME280;11674;52.428;13.584;2023-03-13T13:43:24;99391.38;;;18.10;86.05
23016;BME280;11674;52.428;13.584;2023-03-13T13:53:53;99391.31;;;18.06;86.29
23016;BME280;11674;52.428;13.584;2023-03-13T13:59:21;99384.81;;;18.02;86.24
23016;BME280;11674;52.428;13.584;2023-03-13T14:04:33;99393.44;;;17.90;85.65
23016;BME280;11674;52.428;13.584;2023-03-13T14:30:49;99387.84;;;18.35;86.91
23016;BME280;11674;52.428;13.584;2023-03-13T14:35:56;99384.13;;;18.31;86.83
23016;BME280;11674;52.428;13.584;2023-03-13T14:41:03;99371.66;;;18.51;86.83
23016;BME280;11674;52.428;13.584;2023-03-13T14:46:26;99361.25;;;18.52;86.41
23016;BME280;11674;52.428;13.584;2023-03-13T14:51:37;99369.88;;;18.40;86.08
23016;BME280;11674;52.428;13.584;2023-03-13T14:56:44;99361.97;;;18.26;85.95
23016;BME280;11674;52.428;13.584;2023-03-13T15:12:42;99344.84;;;18.09;86.22
23016;BME280;11674;52.428;13.584;2023-03-13T15:17:49;99326.75;;;18.06;85.98
23016;BME280;11674;52.428;13.584;2023-03-13T15:22:56;99319.03;;;18.00;86.17
23016;BME280;11674;52.428;13.584;2023-03-13T15:28:07;99322.97;;;17.95;86.38
23016;BME280;11674;52.428;13.584;2023-03-13T15:33:21;99323.34;;;17.94;86.08
23016;BME280;11674;52.428;13.584;2023-03-13T15:38:28;99317.72;;;17.94;86.31
23016;BME280;11674;52.428;13.584;2023-03-13T15:43:35;99310.75;;;17.84;86.03
23016;BME280;11674;52.428;13.584;2023-03-13T15:48:42;99293.59;;;17.67;86.15
23016;BME280;11674;52.428;13.584;2023-03-13T15:53:52;99292.97;;;17.54;86.04
23016;BME280;11674;52.428;13.584;2023-03-13T15:58:59;99282.34;;;17.44;85.90
23016;BME280;11674;52.428;13.584;2023-03-13T16:04:06;99267.44;;;17.40;86.01
23016;BME280;11674;52.428;13.584;2023-03-13T16:09:13;99260.50;;;17.34;86.34
23016;BME280;11674;52.428;13.584;2023-03-13T16:14:20;99265.22;;;17.30;86.21
23016;BME280;11674;52.428;13.584;2023-03-13T16:19:28;99255.59;;;17.28;86.45
23016;BME280;11674;52.428;13.584;2023-03-13T16:24:35;99239.06;;;17.23;86.18
23016;BME280;11674;52.428;13.584;2023-03-13T16:29:43;99220.91;;;17.17;86.38
23016;BME280;11674;52.428;13.584;2023-03-13T16:34:50;99224.41;;;17.10;86.35
23016;BME280;11674;52.428;13.584;2023-03-13T16:39:57;99224.25;;;17.03;85.93
23016;BME280;11674;52.428;13.584;2023-03-13T16:45:06;99218.84;;;16.91;86.10
23016;BME280;11674;52.428;13.584;2023-03-13T16:55:21;99200.06;;;16.73;86.21
23016;BME280;11674;52.428;13.584;2023-03-13T17:00:30;99197.13;;;16.66;86.24
23016;BME280;11674;52.428;13.584;2023-03-13T17:05:37;99191.38;;;16.59;86.07
23016;BME280;11674;52.428;13.584;2023-03-13T17:10:44;99189.59;;;16.51;85.75
23016;BME280;11674;52.428;13.584;2023-03-13T17:15:51;99189.47;;;16.44;86.15
23016;BME280;11674;52.428;13.584;2023-03-13T17:20:58;99191.69;;;16.38;86.09
23016;BME280;11674;52.428;13.584;2023-03-13T17:26:14;99190.00;;;16.34;85.79
23016;BME280;11674;52.428;13.584;2023-03-13T17:31:24;99195.06;;;16.28;86.17
23016;BME280;11674;52.428;13.584;2023-03-13T17:36:31;99205.00;;;16.26;86.21
23016;BME280;11674;52.428;13.584;2023-03-13T17:41:38;99190.59;;;16.24;86.43
23016;BME280;11674;52.428;13.584;2023-03-13T17:46:46;99199.69;;;16.21;86.24
23016;BME280;11674;52.428;13.584;2023-03-13T17:51:52;99196.41;;;16.15;86.27
23016;BME280;11674;52.428;13.584;2023-03-13T17:56:59;99199.13;;;16.12;85.91
23016;BME280;11674;52.428;13.584;2023-03-13T18:02:11;99192.97;;;16.06;85.99
23016;BME280;11674;52.428;13.584;2023-03-13T18:07:25;99195.78;;;16.06;86.20
23016;BME280;11674;52.428;13.584;2023-03-13T18:12:32;99182.16;;;16.05;86.34
23016;BME280;11674;52.428;13.584;2023-03-13T18:17:39;99176.56;;;16.05;86.14
23016;BME280;11674;52.428;13.584;2023-03-13T18:22:46;99187.56;;;16.13;86.78
23016;BME280;11674;52.428;13.584;2023-03-13T18:27:53;99169.81;;;16.25;86.74
23016;BME280;11674;52.428;13.584;2023-03-13T18:33:00;99168.34;;;16.31;86.47
23016;BME280;11674;52.428;13.584;2023-03-13T18:38:09;99162.75;;;16.31;86.29
23016;BME280;11674;52.428;13.584;2023-03-13T18:43:15;99164.47;;;16.35;86.75
23016;BME280;11674;52.428;13.584;2023-03-13T18:48:22;99174.47;;;16.36;86.45
23016;BME280;11674;52.428;13.584;2023-03-13T18:53:29;99157.16;;;16.31;86.28
23016;BME280;11674;52.428;13.584;2023-03-13T18:58:36;99146.25;;;16.26;86.33
23016;BME280;11674;52.428;13.584;2023-03-13T19:03:43;99154.13;;;16.20;86.18
23016;BME280;11674;52.428;13.584;2023-03-13T19:08:53;99141.25;;;16.16;86.34
23016;BME280;11674;52.428;13.584;2023-03-13T19:14:00;99141.97;;;16.13;86.32
23016;BME280;11674;52.428;13.584;2023-03-13T19:19:12;99144.25;;;16.07;86.06
23016;BME280;11674;52.428;13.584;2023-03-13T19:24:19;99130.19;;;16.04;86.29
23016;BME280;11674;52.428;13.584;2023-03-13T19:29:27;99111.78;;;16.03;86.34
23016;BME280;11674;52.428;13.584;2023-03-13T19:34:33;99121.34;;;16.02;86.00
23016;BME280;11674;52.428;13.584;2023-03-13T19:39:41;99109.28;;;15.98;86.24
23016;BME280;11674;52.428;13.584;2023-03-13T19:44:47;99088.16;;;16.00;86.21
23016;BME280;11674;52.428;13.584;2023-03-13T19:49:54;99079.84;;;16.04;86.25
23016;BME280;11674;52.428;13.584;2023-03-13T19:55:01;99086.59;;;16.03;86.12
23016;BME280;11674;52.428;13.584;2023-03-13T20:00:17;99089.75;;;16.01;86.28
23016;BME280;11674;52.428;13.584;2023-03-13T20:05:25;99110.16;;;16.02;86.01
23016;BME280;11674;52.428;13.584;2023-03-13T20:10:31;99088.50;;;15.99;85.85
23016;BME280;11674;52.428;13.584;2023-03-13T20:15:38;99086.47;;;15.96;86.06
23016;BME280;11674;52.428;13.584;2023-03-13T20:20:52;99066.44;;;15.94;85.94
23016;BME280;11674;52.428;13.584;2023-03-13T20:26:01;99071.53;;;15.88;85.96
23016;BME280;11674;52.428;13.584;2023-03-13T20:31:10;99055.84;;;15.84;85.92
23016;BME280;11674;52.428;13.584;2023-03-13T20:36:18;99057.47;;;15.85;86.20
23016;BME280;11674;52.428;13.584;2023-03-13T20:41:31;99061.50;;;15.87;86.01
23016;BME280;11674;52.428;13.584;2023-03-13T20:46:38;99059.88;;;15.86;86.14
23016;BME280;11674;52.428;13.584;2023-03-13T20:51:46;99052.72;;;15.89;85.97
23016;BME280;11674;52.428;13.584;2023-03-13T20:56:52;99056.34;;;15.89;85.82
23016;BME280;11674;52.428;13.584;2023-03-13T21:01:59;99052.38;;;15.90;86.18
23016;BME280;11674;52.428;13.584;2023-03-13T21:07:07;99048.41;;;15.91;85.81
23016;BME280;11674;52.428;13.584;2023-03-13T21:12:14;99035.97;;;15.89;85.58
23016;BME280;11674;52.428;13.584;2023-03-13T21:17:21;99049.44;;;15.83;85.57
23016;BME280;11674;52.428;13.584;2023-03-13T21:22:27;99041.28;;;15.75;85.38
23016;BME280;11674;52.428;13.584;2023-03-13T21:27:38;99045.59;;;15.72;85.10
23016;BME280;11674;52.428;13.584;2023-03-13T21:32:44;99026.69;;;15.66;85.15
23016;BME280;11674;52.428;13.584;2023-03-13T21:37:51;99075.38;;;15.65;85.33
23016;BME280;11674;52.428;13.584;2023-03-13T21:42:58;99086.28;;;15.70;85.73
23016;BME280;11674;52.428;13.584;2023-03-13T21:48:06;99064.00;;;15.73;85.30
23016;BME280;11674;52.428;13.584;2023-03-13T21:53:13;99048.47;;;15.76;85.35
23016;BME280;11674;52.428;13.584;2023-03-13T21:58:20;99052.81;;;15.73;85.50
23016;BME280;11674;52.428;13.584;2023-03-13T22:03:29;99045.16;;;15.70;85.13
23016;BME280;11674;52.428;13.584;2023-03-13T22:08:36;99039.13;;;15.68;85.28
23016;BME280;11674;52.428;13.584;2023-03-13T22:13:43;99031.47;;;15.65;84.90
23016;BME280;11674;52.428;13.584;2023-03-13T22:18:51;99052.59;;;15.63;85.11
23016;BME280;11674;52.428;13.584;2023-03-13T22:23:59;99051.69;;;15.59;84.89
23016;BME280;11674;52.428;13.584;2023-03-13T22:29:06;99047.19;;;15.54;85.09
23016;BME280;11674;52.428;13.584;2023-03-13T22:34:13;99034.31;;;15.50;85.04
23016;BME280;11674;52.428;13.584;2023-03-13T22:39:24;99015.41;;;15.43;84.67
23016;BME280;11674;52.428;13.584;2023-03-13T22:44:38;99019.72;;;15.41;84.93
23016;BME280;11674;52.428;13.584;2023-03-13T22:49:46;99015.31;;;15.40;84.98
23016;BME280;11674;52.428;13.584;2023-03-13T22:54:53;99010.41;;;15.33;84.99
23016;BME280;11674;52.428;13.584;2023-03-13T23:00:00;99018.22;;;15.28;84.98
23016;BME280;11674;52.428;13.584;2023-03-13T23:05:07;99023.66;;;15.21;84.97
23016;BME280;11674;52.428;13.584;2023-03-13T23:10:13;99014.28;;;15.13;84.87
23016;BME280;11674;52.428;13.584;2023-03-13T23:15:20;99010.53;;;15.06;84.74
23016;BME280;11674;52.428;13.584;2023-03-13T23:20:28;99015.94;;;14.99;84.67
23016;BME280;11674;52.428;13.584;2023-03-13T23:25:37;98993.06;;;14.93;84.35
23016;BME280;11674;52.428;13.584;2023-03-13T23:30:44;98998.13;;;14.88;84.60
23016;BME280;11674;52.428;13.584;2023-03-13T23:35:50;98988.38;;;14.82;84.72
23016;BME280;11674;52.428;13.584;2023-03-13T23:40:58;98984.72;;;14.78;84.45
23016;BME280;11674;52.428;13.584;2023-03-13T23:46:13;98990.56;;;14.73;84.31
23016;BME280;11674;52.428;13.584;2023-03-13T23:51:20;98986.53;;;14.70;84.27
23016;BME280;11674;52.428;13.584;2023-03-13T23:56:30;98983.19;;;14.65;84.35
